Pasinler, Turkey
Current Conditions -  °F | °C
As of 10:50 AM on Friday 19 Dec 2014 (Local Time) from LTCE Reporting Station
Light Snow Light Snow  
Wind Chill: 32°   Ceiling: 2000
Heat Index: 32°   Visibility: 4mi
Dew Point: 27°   Wind: 0mph
Humidity: 80%   Direction: NA
Pressure: 30.15"   Gusts: NA
Location:  39.99°N, 41.69°E
Report Text: LTCE 190750Z 00000KT 7000 -SN BKN020 BKN070 M00/M03 Q1021 TEMPO 4000
Loading
Personal Weather Stations






























Interactive Weather Map New forecast layout! Learn more

10-Day Weather Forecast

Advertisements
Track Severe Weather on mobile